Time;durP1;ratioP1;P1;durP2;ratioP2;P2;SDS_P1;SDS_P2;PMS_P1;PMS_P2;Temp;Humidity;BMP_temperature;BMP_pressure;BME280_temperature;BME280_humidity;BME280_pressure;Samples;Min_cycle;Max_cycle;Signal;HPM_P1;HPM_P2
2023/05/11 00:02:06;;;;;;;4.40;2.00;;;11.80;99.90;;;;;;5091072;28;20531;-67
2023/05/11 00:04:32;;;;;;;7.55;1.85;;;11.80;99.90;;;;;;5072954;28;20075;-67
2023/05/11 00:06:58;;;;;;;4.38;1.75;;;11.80;99.90;;;;;;5090989;28;20078;-67
2023/05/11 00:09:23;;;;;;;3.95;1.98;;;11.80;99.90;;;;;;5090861;28;20043;-67
2023/05/11 00:11:51;;;;;;;4.90;1.85;;;11.80;99.90;;;;;;5072076;28;20071;-67
2023/05/11 00:14:17;;;;;;;3.35;1.65;;;11.80;99.90;;;;;;5072778;28;20452;-67
2023/05/11 00:16:43;;;;;;;5.55;2.63;;;11.80;99.90;;;;;;5090972;28;20115;-67
2023/05/11 00:19:09;;;;;;;4.88;1.92;;;11.90;99.90;;;;;;5071911;28;20492;-67
2023/05/11 00:21:35;;;;;;;4.78;1.48;;;11.90;99.90;;;;;;5055675;28;20044;-67
2023/05/11 00:24:01;;;;;;;4.20;1.77;;;11.80;99.90;;;;;;5090758;28;20039;-67
2023/05/11 00:26:26;;;;;;;4.38;2.17;;;11.80;99.90;;;;;;5090024;28;20456;-67
2023/05/11 00:28:52;;;;;;;3.83;1.83;;;11.90;99.90;;;;;;5072220;28;20036;-67
2023/05/11 00:31:18;;;;;;;5.13;1.70;;;11.90;99.90;;;;;;5072381;28;20384;-67
2023/05/11 00:33:44;;;;;;;4.20;1.67;;;11.90;99.90;;;;;;5054872;28;20118;-67
2023/05/11 00:36:10;;;;;;;5.45;2.50;;;11.90;99.90;;;;;;5072327;28;20032;-67
2023/05/11 00:38:39;;;;;;;2.72;1.15;;;11.90;99.90;;;;;;5090339;28;20032;-67
2023/05/11 00:41:06;;;;;;;4.38;1.60;;;11.90;99.90;;;;;;5089421;28;20036;-67
2023/05/11 00:43:32;;;;;;;5.15;1.73;;;11.80;99.90;;;;;;5071854;28;20040;-67
2023/05/11 00:45:57;;;;;;;5.60;2.00;;;11.80;99.90;;;;;;5071948;28;20043;-67
2023/05/11 00:48:23;;;;;;;5.18;1.58;;;11.90;99.90;;;;;;5070554;28;20056;-67
2023/05/11 00:50:49;;;;;;;2.72;1.63;;;11.90;99.90;;;;;;5071496;28;20048;-67
2023/05/11 00:53:16;;;;;;;4.22;2.17;;;11.80;99.90;;;;;;5055201;28;20093;-67
2023/05/11 00:55:42;;;;;;;3.55;2.10;;;11.90;99.90;;;;;;5071348;28;20348;-67
2023/05/11 00:58:07;;;;;;;3.55;1.92;;;11.80;99.90;;;;;;5071525;28;20404;-67
2023/05/11 01:00:33;;;;;;;3.90;1.83;;;11.80;99.90;;;;;;5070988;28;20298;-67
2023/05/11 01:03:00;;;;;;;1.95;1.17;;;11.80;99.90;;;;;;5071426;28;20081;-67
2023/05/11 01:05:35;;;;;;;5.40;1.80;;;11.80;99.90;;;;;;5071631;28;20408;-68
2023/05/11 01:08:40;;;;;;;4.38;2.10;;;11.80;99.90;;;;;;5071122;28;20379;-67
2023/05/11 01:11:09;;;;;;;4.57;1.60;;;11.80;99.90;;;;;;5067282;28;20052;-67
2023/05/11 01:13:44;;;;;;;3.17;1.75;;;11.80;99.90;;;;;;5071523;28;20040;-67
2023/05/11 01:16:39;;;;;;;5.60;2.13;;;11.80;99.90;;;;;;5071092;28;20036;-67
2023/05/11 01:19:22;;;;;;;4.80;2.35;;;11.80;99.90;;;;;;5067872;28;20377;-67
2023/05/11 01:21:50;;;;;;;3.85;1.52;;;11.80;99.90;;;;;;5088877;28;20032;-67
2023/05/11 01:24:52;;;;;;;3.67;1.50;;;11.70;99.90;;;;;;5071146;28;20036;-67
2023/05/11 01:27:30;;;;;;;4.88;2.10;;;11.80;99.90;;;;;;5089602;28;20040;-67
2023/05/11 01:30:31;;;;;;;3.35;1.40;;;11.80;99.90;;;;;;5070388;28;20044;-67
2023/05/11 01:33:07;;;;;;;3.40;1.42;;;11.80;99.90;;;;;;5071117;28;20557;-66
2023/05/11 01:35:37;;;;;;;3.50;1.30;;;11.80;99.90;;;;;;5070410;28;20040;-67
2023/05/11 01:38:09;;;;;;;3.65;1.77;;;11.70;99.90;;;;;;5089398;28;20043;-67
2023/05/11 01:40:38;;;;;;;4.53;2.22;;;11.70;99.90;;;;;;5071308;28;20106;-67
2023/05/11 01:43:08;;;;;;;4.80;1.80;;;11.70;99.90;;;;;;5088730;28;20123;-67
2023/05/11 01:45:39;;;;;;;2.35;1.10;;;11.70;99.90;;;;;;5054288;28;20044;-67
2023/05/11 01:48:09;;;;;;;2.42;1.50;;;11.70;99.90;;;;;;5088925;28;20052;-67
2023/05/11 01:50:36;;;;;;;;;;;11.70;99.90;;;;;;5054628;28;20048;-67
2023/05/11 01:53:03;;;;;;;3.05;1.60;;;11.60;99.90;;;;;;5054281;28;19920;-67
2023/05/11 01:55:31;;;;;;;4.47;1.92;;;11.60;99.90;;;;;;5070775;28;20105;-67
2023/05/11 01:57:59;;;;;;;4.47;2.08;;;11.60;99.90;;;;;;5070118;28;20042;-67
2023/05/11 02:00:25;;;;;;;3.22;1.70;;;11.60;99.90;;;;;;5070719;28;20040;-67
2023/05/11 02:02:54;;;;;;;3.28;1.73;;;11.60;99.90;;;;;;5070742;28;20073;-67
2023/05/11 02:05:22;;;;;;;4.10;1.48;;;11.60;99.90;;;;;;5088185;28;20488;-67
2023/05/11 02:07:53;;;;;;;5.80;2.17;;;11.60;99.90;;;;;;5071307;28;20235;-67
2023/05/11 02:10:20;;;;;;;3.92;1.67;;;11.50;99.90;;;;;;5070857;28;20028;-67
2023/05/11 02:12:47;;;;;;;5.00;2.10;;;11.60;99.90;;;;;;5088211;28;20267;-67
2023/05/11 02:15:15;;;;;;;5.35;1.98;;;11.60;99.90;;;;;;5088958;28;20036;-67
2023/05/11 02:17:42;;;;;;;3.03;1.52;;;11.60;99.90;;;;;;5070392;28;20044;-68
2023/05/11 02:20:09;;;;;;;8.48;1.70;;;11.60;99.90;;;;;;5054222;28;20044;-67
2023/05/11 02:22:36;;;;;;;5.10;1.85;;;11.50;99.90;;;;;;5070751;28;20048;-67
2023/05/11 02:25:04;;;;;;;5.28;2.00;;;11.50;99.90;;;;;;5053226;28;20051;-68
2023/05/11 02:27:31;;;;;;;5.05;1.88;;;11.50;99.90;;;;;;5070464;28;20119;-67
2023/05/11 02:29:57;;;;;;;4.13;1.75;;;11.60;99.90;;;;;;5088395;28;20504;-67
2023/05/11 02:32:25;;;;;;;6.22;2.25;;;11.60;99.90;;;;;;5088147;28;20072;-67
2023/05/11 02:35:04;;;;;;;2.30;1.23;;;11.60;99.90;;;;;;5088421;28;20540;-67
2023/05/11 02:37:33;;;;;;;4.43;2.00;;;11.60;99.90;;;;;;5053750;28;20530;-68
2023/05/11 02:40:07;;;;;;;6.20;2.78;;;11.60;99.90;;;;;;5069955;28;20079;-67
2023/05/11 02:42:38;;;;;;;4.25;1.83;;;11.60;99.90;;;;;;5053926;28;20542;-67
2023/05/11 02:45:07;;;;;;;5.00;2.33;;;11.60;99.90;;;;;;5088682;28;20044;-67
2023/05/11 02:47:57;;;;;;;4.85;1.55;;;11.60;99.90;;;;;;5052944;28;20048;-67
2023/05/11 02:50:27;;;;;;;6.63;2.00;;;11.60;99.90;;;;;;5088628;28;20109;-68
2023/05/11 02:52:57;;;;;;;3.45;1.63;;;11.60;99.90;;;;;;5069646;28;20047;-67
2023/05/11 02:55:23;;;;;;;7.25;2.67;;;11.60;99.90;;;;;;5070204;28;20557;-68
2023/05/11 02:57:49;;;;;;;5.35;2.05;;;11.60;99.90;;;;;;5070090;28;20514;-68
2023/05/11 03:00:16;;;;;;;4.55;1.85;;;11.60;99.90;;;;;;5053087;28;20086;-68
2023/05/11 03:02:42;;;;;;;3.28;1.60;;;11.60;99.90;;;;;;5070408;28;20097;-67
2023/05/11 03:05:08;;;;;;;5.28;1.60;;;11.60;99.90;;;;;;5070496;28;20522;-67
2023/05/11 03:07:34;;;;;;;3.85;2.05;;;11.50;99.90;;;;;;5069478;28;20523;-67
2023/05/11 03:10:01;;;;;;;3.42;1.52;;;11.60;99.90;;;;;;5070307;28;20036;-67
2023/05/11 03:12:31;;;;;;;5.68;2.03;;;11.50;99.90;;;;;;5071275;28;20044;-67
2023/05/11 03:15:01;;;;;;;3.53;1.40;;;11.50;99.90;;;;;;5073014;28;20118;-67
2023/05/11 03:17:29;;;;;;;3.47;1.75;;;11.50;99.90;;;;;;5057108;28;20040;-67
2023/05/11 03:19:56;;;;;;;4.68;1.77;;;11.50;99.90;;;;;;5074232;28;20040;-67
2023/05/11 03:22:23;;;;;;;3.50;1.20;;;11.50;99.90;;;;;;5096412;28;20040;-67
2023/05/11 03:24:50;;;;;;;4.72;1.83;;;11.50;99.90;;;;;;5111896;28;20048;-67
2023/05/11 03:27:17;;;;;;;4.47;2.15;;;11.50;99.90;;;;;;5093906;28;20460;-67
2023/05/11 03:29:45;;;;;;;5.55;2.13;;;11.50;99.90;;;;;;5093107;28;20100;-67
2023/05/11 03:32:12;;;;;;;5.13;2.30;;;11.50;99.90;;;;;;5111910;28;20186;-67
2023/05/11 03:34:38;;;;;;;5.25;2.13;;;11.50;99.90;;;;;;5111157;28;20043;-67
2023/05/11 03:37:11;;;;;;;4.25;1.65;;;11.50;99.90;;;;;;5093443;28;20100;-67
2023/05/11 03:39:38;;;;;;;6.18;2.53;;;11.40;99.90;;;;;;5093474;28;20048;-67
2023/05/11 03:42:05;;;;;;;5.53;2.70;;;11.40;99.90;;;;;;5093154;28;20071;-67
2023/05/11 03:44:35;;;;;;;5.72;2.22;;;11.40;99.90;;;;;;5111992;28;20390;-67
2023/05/11 03:47:02;;;;;;;;;;;11.40;99.90;;;;;;5093858;28;20151;-67
2023/05/11 03:49:29;;;;;;;5.70;1.70;;;11.40;99.90;;;;;;5092601;28;20429;-67
2023/05/11 03:51:56;;;;;;;6.03;1.83;;;11.40;99.90;;;;;;5076439;28;20050;-67
2023/05/11 03:54:22;;;;;;;5.13;2.05;;;11.40;99.90;;;;;;5111313;28;20560;-67
2023/05/11 03:56:48;;;;;;;3.88;1.83;;;11.40;99.90;;;;;;5092426;28;20072;-67
2023/05/11 03:59:17;;;;;;;4.47;1.80;;;11.40;99.90;;;;;;5076148;28;20039;-67
2023/05/11 04:01:43;;;;;;;5.15;2.58;;;11.40;99.90;;;;;;5092939;28;20097;-67
2023/05/11 04:04:09;;;;;;;5.57;1.88;;;11.40;99.90;;;;;;5092292;28;20042;-67
2023/05/11 04:06:35;;;;;;;6.35;2.35;;;11.40;99.90;;;;;;5075933;28;20035;-67
2023/05/11 04:09:01;;;;;;;5.90;2.38;;;11.40;99.90;;;;;;5092945;28;20079;-67
2023/05/11 04:11:29;;;;;;;5.63;2.08;;;11.40;99.90;;;;;;5075349;28;20101;-67
2023/05/11 04:13:55;;;;;;;8.23;2.17;;;11.40;99.90;;;;;;5111281;28;20040;-67
2023/05/11 04:16:20;;;;;;;5.78;2.25;;;11.40;99.90;;;;;;5111284;28;20039;-67
2023/05/11 04:18:47;;;;;;;4.28;1.90;;;11.40;99.90;;;;;;5110687;28;20036;-67
2023/05/11 04:21:12;;;;;;;6.57;2.63;;;11.40;99.90;;;;;;5092994;28;20395;-67
2023/05/11 04:23:38;;;;;;;5.90;2.08;;;11.40;99.90;;;;;;5092147;28;20046;-67
2023/05/11 04:26:04;;;;;;;5.30;2.33;;;11.40;99.90;;;;;;5075578;28;20043;-68
2023/05/11 04:28:30;;;;;;;5.32;2.38;;;11.40;99.90;;;;;;5075522;28;20534;-67
2023/05/11 04:30:56;;;;;;;4.75;2.10;;;11.40;99.90;;;;;;5109975;28;20039;-68
2023/05/11 04:33:23;;;;;;;6.03;2.08;;;11.40;99.90;;;;;;5075464;28;20071;-67
2023/05/11 04:35:50;;;;;;;5.18;2.17;;;11.40;99.90;;;;;;5092283;28;20131;-67
2023/05/11 04:38:16;;;;;;;5.13;2.15;;;11.50;99.90;;;;;;5092019;28;20444;-67
2023/05/11 04:40:42;;;;;;;6.07;1.88;;;11.50;99.90;;;;;;5110398;28;20132;-67
2023/05/11 04:43:08;;;;;;;6.78;2.47;;;11.50;99.90;;;;;;5092233;28;20071;-67
2023/05/11 04:45:33;;;;;;;4.88;2.05;;;11.50;99.90;;;;;;5091972;28;20040;-68
2023/05/11 04:47:59;;;;;;;4.00;1.90;;;11.60;99.90;;;;;;5091886;28;20048;-67
2023/05/11 04:50:25;;;;;;;6.85;2.60;;;11.60;99.90;;;;;;5092070;28;20048;-67
2023/05/11 04:52:51;;;;;;;3.65;2.05;;;11.60;99.90;;;;;;5109674;28;20042;-67
2023/05/11 04:55:17;;;;;;;5.68;2.58;;;11.70;99.90;;;;;;5075120;28;20035;-67
2023/05/11 04:57:42;;;;;;;7.30;2.72;;;11.70;99.90;;;;;;5091816;28;20123;-67
2023/05/11 05:00:09;;;;;;;5.43;2.05;;;11.70;99.90;;;;;;5091330;28;20039;-67
2023/05/11 05:02:34;;;;;;;7.38;2.58;;;11.80;99.90;;;;;;5092027;28;20058;-67
2023/05/11 05:05:00;;;;;;;5.95;1.85;;;11.80;99.90;;;;;;5091941;28;20039;-67
2023/05/11 05:07:26;;;;;;;6.65;2.50;;;11.80;99.90;;;;;;5109327;28;20488;-67
2023/05/11 05:09:52;;;;;;;5.38;2.22;;;11.80;99.90;;;;;;5087918;28;20052;-67
2023/05/11 05:12:18;;;;;;;4.53;2.10;;;11.80;99.90;;;;;;5071583;28;20044;-67
2023/05/11 05:14:44;;;;;;;4.75;1.90;;;11.90;99.90;;;;;;5070640;28;20093;-67
2023/05/11 05:17:09;;;;;;;5.10;2.17;;;11.90;99.90;;;;;;5071733;28;20040;-68
2023/05/11 05:19:36;;;;;;;6.63;2.28;;;12.00;99.90;;;;;;5089072;28;20036;-67
2023/05/11 05:22:02;;;;;;;5.40;2.78;;;12.10;99.90;;;;;;5071175;28;20044;-67
2023/05/11 05:24:28;;;;;;;3.60;1.67;;;12.10;99.90;;;;;;5071254;28;20051;-67
2023/05/11 05:26:53;;;;;;;5.65;1.80;;;12.10;99.90;;;;;;5070561;28;20048;-67
2023/05/11 05:29:19;;;;;;;6.50;2.33;;;12.20;99.90;;;;;;5089420;28;20072;-67
2023/05/11 05:31:45;;;;;;;6.32;2.45;;;12.20;99.90;;;;;;5070947;28;20503;-67
2023/05/11 05:34:11;;;;;;;2.70;1.08;;;12.20;99.90;;;;;;5070694;28;20079;-67
2023/05/11 05:36:38;;;;;;;5.68;2.03;;;12.20;99.90;;;;;;5088881;28;20449;-67
2023/05/11 05:39:08;;;;;;;4.55;2.10;;;12.20;99.90;;;;;;5071238;28;20076;-67
2023/05/11 05:41:35;;;;;;;4.63;1.95;;;12.20;99.90;;;;;;5088787;28;20524;-67
2023/05/11 05:44:02;;;;;;;5.07;1.75;;;12.20;99.90;;;;;;5089363;28;20046;-68
2023/05/11 05:46:28;;;;;;;4.63;2.53;;;12.20;99.90;;;;;;5088942;28;20073;-68
2023/05/11 05:48:54;;;;;;;5.28;2.08;;;12.20;99.90;;;;;;5050631;28;20056;-68
2023/05/11 05:51:21;;;;;;;5.10;1.98;;;12.20;99.90;;;;;;5068344;28;20447;-68
2023/05/11 05:53:47;;;;;;;5.75;1.33;;;12.20;99.90;;;;;;5069869;28;20032;-69
2023/05/11 05:56:13;;;;;;;5.15;2.05;;;12.20;99.90;;;;;;5067903;28;20037;-68
2023/05/11 05:58:39;;;;;;;4.88;2.33;;;12.20;99.90;;;;;;5068435;28;20051;-69
2023/05/11 06:01:05;;;;;;;4.40;1.35;;;12.10;99.90;;;;;;5068288;28;20123;-68
2023/05/11 06:03:31;;;;;;;2.85;1.25;;;12.10;99.90;;;;;;5066964;28;20581;-68
2023/05/11 06:05:57;;;;;;;3.58;1.67;;;12.10;99.90;;;;;;5067465;28;20040;-68
2023/05/11 06:08:22;;;;;;;5.13;2.05;;;12.10;99.90;;;;;;5067688;28;20078;-67
2023/05/11 06:10:48;;;;;;;6.18;2.15;;;12.10;99.90;;;;;;5050338;28;20032;-68
2023/05/11 06:13:14;;;;;;;4.90;2.33;;;12.10;99.90;;;;;;5067322;28;20036;-68
2023/05/11 06:15:40;;;;;;;5.05;2.20;;;12.10;99.90;;;;;;5068319;28;20067;-68
2023/05/11 06:18:05;;;;;;;3.88;1.80;;;12.00;99.90;;;;;;5068520;28;20036;-68
2023/05/11 06:20:31;;;;;;;3.75;1.65;;;12.00;99.90;;;;;;5067671;28;20050;-68
2023/05/11 06:22:57;;;;;;;3.17;1.13;;;12.00;99.90;;;;;;5067065;28;20402;-69
2023/05/11 06:25:23;;;;;;;4.45;2.10;;;12.00;99.90;;;;;;5067210;28;20122;-67
2023/05/11 06:27:49;;;;;;;5.40;2.13;;;12.00;99.90;;;;;;5067553;28;20040;-64
2023/05/11 06:30:14;;;;;;;4.47;1.88;;;11.90;99.90;;;;;;5068139;28;20052;-65
2023/05/11 06:32:40;;;;;;;5.38;1.80;;;11.90;99.90;;;;;;5067431;28;20499;-65
2023/05/11 06:35:06;;;;;;;4.93;1.65;;;11.90;99.90;;;;;;5067354;28;20537;-64
2023/05/11 06:37:32;;;;;;;2.88;1.33;;;11.90;99.90;;;;;;5066833;28;20063;-65
2023/05/11 06:39:58;;;;;;;3.33;1.48;;;11.90;99.90;;;;;;5068656;28;20111;-65
2023/05/11 06:42:24;;;;;;;3.53;1.27;;;11.90;99.90;;;;;;5067208;28;20139;-65
2023/05/11 06:44:50;;;;;;;3.10;1.40;;;11.90;99.90;;;;;;5066377;28;20041;-65
2023/05/11 06:47:16;;;;;;;4.82;1.23;;;11.90;99.90;;;;;;5053983;28;20091;-66
2023/05/11 06:49:41;;;;;;;3.83;1.27;;;11.90;99.90;;;;;;5092539;28;20044;-66
2023/05/11 06:52:08;;;;;;;5.28;1.60;;;11.80;99.90;;;;;;5073613;28;20114;-66
2023/05/11 06:54:34;;;;;;;2.38;0.93;;;11.90;99.90;;;;;;5074057;28;20042;-67
2023/05/11 06:57:02;;;;;;;5.28;1.25;;;11.80;99.90;;;;;;5074480;28;20071;-66
2023/05/11 06:59:28;;;;;;;2.80;0.93;;;11.80;99.90;;;;;;5091573;28;20040;-67
2023/05/11 07:01:54;;;;;;;1.52;0.80;;;11.80;99.90;;;;;;5086589;28;20376;-67
2023/05/11 07:04:22;;;;;;;2.63;1.20;;;11.80;99.90;;;;;;5077877;28;20039;-67
2023/05/11 07:06:48;;;;;;;5.40;1.17;;;11.80;99.90;;;;;;5077220;28;20122;-66
2023/05/11 07:09:17;;;;;;;5.07;1.25;;;11.80;99.90;;;;;;5095354;28;20079;-65
2023/05/11 07:11:43;;;;;;;2.22;0.95;;;11.90;99.90;;;;;;5094677;28;20035;-65
2023/05/11 07:14:09;;;;;;;3.42;1.05;;;11.80;99.90;;;;;;5095529;28;20097;-65
2023/05/11 07:16:59;;;;;;;2.13;0.60;;;11.80;99.90;;;;;;5095537;28;20651;-65
2023/05/11 07:19:26;;;;;;;1.67;0.70;;;11.80;99.90;;;;;;5095236;28;20104;-64
2023/05/11 07:21:51;;;;;;;2.25;1.00;;;11.80;99.90;;;;;;5114275;28;20044;-64
2023/05/11 07:24:17;;;;;;;3.95;0.77;;;11.80;99.90;;;;;;5095298;28;20679;-64
2023/05/11 07:26:43;;;;;;;1.80;0.70;;;11.80;99.90;;;;;;5094155;28;20040;-64
2023/05/11 07:29:09;;;;;;;2.33;0.60;;;11.80;99.90;;;;;;5113361;28;20071;-64
2023/05/11 07:31:35;;;;;;;2.10;0.88;;;11.80;99.90;;;;;;5094982;28;20422;-64
2023/05/11 07:34:01;;;;;;;3.17;1.05;;;11.80;99.90;;;;;;5094447;28;20375;-64
2023/05/11 07:36:27;;;;;;;2.63;0.80;;;11.90;99.90;;;;;;5112928;28;20028;-64
2023/05/11 07:38:52;;;;;;;2.65;0.65;;;11.80;99.90;;;;;;5094618;28;20701;-63
2023/05/11 07:41:20;;;;;;;2.00;0.50;;;11.80;99.90;;;;;;5112244;28;20511;-63
2023/05/11 07:43:45;;;;;;;2.10;0.88;;;11.90;99.90;;;;;;5112401;28;20049;-63
2023/05/11 07:46:16;;;;;;;2.38;0.90;;;11.90;99.90;;;;;;5077022;28;20052;-63
2023/05/11 07:48:45;;;;;;;2.50;1.00;;;11.90;99.90;;;;;;5089208;28;20052;-63
2023/05/11 07:51:11;;;;;;;1.92;0.60;;;11.90;99.90;;;;;;5091522;28;20040;-64
2023/05/11 07:53:37;;;;;;;2.83;1.00;;;11.90;99.90;;;;;;5090984;28;20059;-64
2023/05/11 07:56:03;;;;;;;2.67;0.90;;;11.90;99.90;;;;;;5091537;28;20043;-64
2023/05/11 07:58:29;;;;;;;2.28;1.00;;;11.90;99.90;;;;;;5088952;28;20039;-64
2023/05/11 08:00:56;;;;;;;1.05;0.63;;;12.00;99.90;;;;;;5090352;28;20036;-64
2023/05/11 08:03:22;;;;;;;2.88;0.70;;;12.00;99.90;;;;;;5089855;28;20093;-64
2023/05/11 08:05:48;;;;;;;1.48;0.40;;;12.00;99.90;;;;;;5089744;28;20043;-65
2023/05/11 08:08:14;;;;;;;2.60;0.57;;;12.10;99.90;;;;;;5089040;28;20484;-64
2023/05/11 08:10:41;;;;;;;0.65;0.40;;;12.10;99.90;;;;;;5090795;28;20164;-64
2023/05/11 08:13:07;;;;;;;1.88;0.60;;;12.10;99.90;;;;;;5089830;28;20039;-64
2023/05/11 08:15:33;;;;;;;1.02;0.52;;;12.10;99.90;;;;;;5089085;28;20462;-64
2023/05/11 08:17:59;;;;;;;0.57;0.30;;;12.10;99.90;;;;;;5090601;28;20076;-64
2023/05/11 08:20:25;;;;;;;0.93;0.40;;;12.10;99.90;;;;;;5089341;28;20040;-64
2023/05/11 08:22:51;;;;;;;0.68;0.20;;;12.10;99.90;;;;;;5088808;28;20039;-64
2023/05/11 08:25:17;;;;;;;0.85;0.50;;;12.10;99.90;;;;;;5090760;28;20040;-64
2023/05/11 08:27:45;;;;;;;0.82;0.40;;;12.10;99.90;;;;;;5090896;28;20361;-64
2023/05/11 08:30:12;;;;;;;0.80;0.32;;;12.10;99.90;;;;;;5089872;28;20052;-64
2023/05/11 08:32:38;;;;;;;1.00;0.22;;;12.10;99.90;;;;;;5072348;28;20043;-64
2023/05/11 08:35:04;;;;;;;1.50;0.40;;;12.10;99.90;;;;;;5089190;28;20032;-64
2023/05/11 08:37:30;;;;;;;1.27;0.55;;;12.10;99.90;;;;;;5089966;28;20028;-65
2023/05/11 08:39:56;;;;;;;0.85;0.40;;;12.20;99.90;;;;;;5090467;28;20040;-65
2023/05/11 08:42:25;;;;;;;0.73;0.30;;;12.20;99.90;;;;;;5088711;28;20101;-64
2023/05/11 08:44:56;;;;;;;1.37;0.27;;;12.30;99.90;;;;;;5088317;28;20580;-65
2023/05/11 08:47:23;;;;;;;1.13;0.43;;;12.40;99.90;;;;;;5088933;28;20397;-65
2023/05/11 08:49:49;;;;;;;1.13;0.30;;;12.50;99.90;;;;;;5089788;28;20115;-65
2023/05/11 08:52:17;;;;;;;0.80;0.45;;;12.60;99.90;;;;;;5090234;28;20032;-65
2023/05/11 08:54:44;;;;;;;0.70;0.20;;;12.80;99.90;;;;;;5089918;28;20492;-65
2023/05/11 08:57:12;;;;;;;0.80;0.30;;;13.00;99.90;;;;;;5088126;28;20492;-65
2023/05/11 08:59:39;;;;;;;2.63;0.73;;;13.10;99.90;;;;;;5088666;28;20044;-66
2023/05/11 09:02:06;;;;;;;0.65;0.28;;;13.20;99.90;;;;;;5071615;28;20553;-65
2023/05/11 09:04:33;;;;;;;0.30;0.22;;;13.40;99.90;;;;;;5088429;28;20059;-65
2023/05/11 09:06:59;;;;;;;0.73;0.30;;;13.40;99.90;;;;;;5089100;28;20372;-64
2023/05/11 09:09:25;;;;;;;1.65;0.47;;;13.40;99.90;;;;;;5089481;28;20505;-64
2023/05/11 09:11:53;;;;;;;0.98;0.52;;;13.40;99.90;;;;;;5087622;28;20297;-63
2023/05/11 09:14:18;;;;;;;1.65;0.65;;;13.50;99.90;;;;;;5088209;28;20450;-63
2023/05/11 09:16:44;;;;;;;0.90;0.65;;;13.50;99.90;;;;;;5071383;28;20131;-63
2023/05/11 09:19:15;;;;;;;4.80;1.40;;;13.50;99.90;;;;;;5087853;28;20136;-63
2023/05/11 09:21:41;;;;;;;3.50;1.25;;;13.60;99.90;;;;;;5088309;28;20495;-63
2023/05/11 09:24:11;;;;;;;4.93;1.27;;;13.70;99.90;;;;;;5089871;28;20044;-63
2023/05/11 09:26:37;;;;;;;1.58;0.82;;;13.80;99.90;;;;;;5087961;28;20180;-63
2023/05/11 09:29:03;;;;;;;2.95;1.08;;;13.90;99.90;;;;;;5088917;28;20047;-64
2023/05/11 09:31:42;;;;;;;2.03;0.88;;;14.00;99.90;;;;;;5090048;28;20512;-64
2023/05/11 09:34:13;;;;;;;1.90;0.80;;;14.00;99.90;;;;;;5090383;28;20036;-64
2023/05/11 09:36:42;;;;;;;2.42;0.88;;;14.10;99.90;;;;;;5090505;28;20558;-64
2023/05/11 09:39:08;;;;;;;1.10;0.73;;;14.20;99.90;;;;;;5088575;28;20124;-64
2023/05/11 09:41:34;;;;;;;2.05;0.82;;;14.20;99.90;;;;;;5088920;28;20039;-64
2023/05/11 09:44:14;;;;;;;2.20;1.08;;;14.30;99.90;;;;;;5071571;28;20126;-64
2023/05/11 09:46:42;;;;;;;2.65;0.90;;;14.50;99.90;;;;;;5071155;28;20503;-64
2023/05/11 09:49:08;;;;;;;1.65;0.93;;;14.60;99.90;;;;;;5087771;28;20048;-64
2023/05/11 09:51:36;;;;;;;2.45;0.77;;;14.70;99.90;;;;;;5089456;28;20072;-64
2023/05/11 09:54:22;;;;;;;4.50;2.03;;;14.80;99.90;;;;;;5088897;28;20054;-64
2023/05/11 09:56:55;;;;;;;2.25;0.88;;;14.90;99.90;;;;;;5070983;28;20130;-64
2023/05/11 09:59:40;;;;;;;2.67;1.00;;;15.00;99.90;;;;;;5087945;28;20122;-64
2023/05/11 10:02:18;;;;;;;2.67;0.70;;;15.20;99.90;;;;;;5088147;28;20432;-64
2023/05/11 10:04:44;;;;;;;3.83;1.25;;;15.20;99.90;;;;;;5089120;28;20047;-65
2023/05/11 10:07:10;;;;;;;2.38;0.80;;;15.10;99.90;;;;;;5088441;28;20044;-65
2023/05/11 10:09:37;;;;;;;1.33;0.70;;;15.10;99.90;;;;;;5070964;28;20036;-65
2023/05/11 10:12:05;;;;;;;1.08;0.90;;;15.10;99.90;;;;;;5071010;28;20391;-66
2023/05/11 10:14:32;;;;;;;1.58;0.73;;;15.00;99.90;;;;;;5086899;28;20040;-66
2023/05/11 10:17:00;;;;;;;2.97;1.02;;;15.00;99.90;;;;;;5087737;28;20460;-66
2023/05/11 10:19:26;;;;;;;3.58;1.42;;;15.00;99.90;;;;;;5070527;28;20036;-67
2023/05/11 10:21:54;;;;;;;4.00;1.23;;;15.00;99.90;;;;;;5088951;28;20052;-67
2023/05/11 10:24:21;;;;;;;2.80;1.10;;;15.00;99.90;;;;;;5091757;28;20459;-67
2023/05/11 10:26:48;;;;;;;3.80;1.75;;;15.10;99.90;;;;;;5092759;28;20087;-67
2023/05/11 10:29:18;;;;;;;4.28;1.83;;;15.20;99.90;;;;;;5091022;28;20048;-67
2023/05/11 10:31:45;;;;;;;4.93;1.48;;;15.20;99.90;;;;;;5091829;28;20079;-67
2023/05/11 10:34:11;;;;;;;4.93;1.75;;;15.30;99.90;;;;;;5074818;28;20039;-67
2023/05/11 10:36:38;;;;;;;2.83;1.05;;;15.50;99.90;;;;;;5091026;28;20448;-67
2023/05/11 10:39:03;;;;;;;2.22;1.17;;;15.70;99.90;;;;;;5091279;28;20112;-66
2023/05/11 10:41:54;;;;;;;4.00;1.50;;;16.10;99.90;;;;;;5091215;28;20039;-66
2023/05/11 10:45:07;;;;;;;3.00;1.17;;;16.40;99.90;;;;;;5091445;28;20129;-66
2023/05/11 10:48:02;;;;;;;2.33;0.85;;;16.50;99.90;;;;;;5009423;28;20056;-65
2023/05/11 10:50:37;;;;;;;3.92;1.35;;;16.50;99.90;;;;;;4976588;28;20056;-65
2023/05/11 10:53:24;;;;;;;5.75;2.22;;;16.60;99.90;;;;;;4993604;28;20394;-65
2023/05/11 10:56:05;;;;;;;6.55;2.53;;;16.80;99.90;;;;;;4992998;28;20038;-65
2023/05/11 10:59:08;;;;;;;4.50;1.05;;;17.30;99.90;;;;;;5009738;28;20530;-65
2023/05/11 11:01:36;;;;;;;3.53;1.67;;;17.50;99.90;;;;;;5009694;28;20034;-65
2023/05/11 11:04:05;;;;;;;2.77;1.23;;;17.70;99.90;;;;;;4992904;28;20141;-64
2023/05/11 11:06:32;;;;;;;1.38;0.70;;;17.90;99.90;;;;;;4993273;28;20044;-64
2023/05/11 11:09:03;;;;;;;3.38;1.17;;;18.10;99.90;;;;;;4993029;28;20518;-64
2023/05/11 11:11:41;;;;;;;5.25;1.40;;;18.20;99.90;;;;;;4992653;28;20096;-64
2023/05/11 11:14:08;;;;;;;1.77;0.70;;;18.40;99.90;;;;;;4993457;28;20046;-64
2023/05/11 11:16:36;;;;;;;3.55;1.38;;;18.50;99.90;;;;;;4992380;28;20034;-65
2023/05/11 11:19:29;;;;;;;3.88;0.98;;;18.50;99.90;;;;;;4993106;28;20081;-64
2023/05/11 11:21:59;;;;;;;3.65;1.30;;;18.40;99.90;;;;;;5009211;28;20379;-64
2023/05/11 11:24:37;;;;;;;3.33;1.15;;;18.50;99.90;;;;;;5027288;28;20117;-65
2023/05/11 11:27:05;;;;;;;3.05;1.40;;;18.70;99.90;;;;;;5071666;28;20044;-65
2023/05/11 11:29:31;;;;;;;3.38;1.10;;;18.60;99.90;;;;;;5070194;28;20033;-65
2023/05/11 11:32:18;;;;;;;3.97;1.50;;;18.40;99.90;;;;;;5069463;28;20043;-65
2023/05/11 11:34:45;;;;;;;2.67;0.90;;;18.20;99.90;;;;;;5070032;28;20127;-65
2023/05/11 11:37:13;;;;;;;3.85;1.60;;;18.10;99.90;;;;;;5071415;28;20120;-65
2023/05/11 11:39:42;;;;;;;1.58;1.02;;;18.20;99.90;;;;;;5070586;28;20127;-65
2023/05/11 11:42:32;;;;;;;2.92;1.60;;;18.40;99.90;;;;;;5069868;28;20043;-65
2023/05/11 11:45:27;;;;;;;2.17;0.95;;;18.50;99.90;;;;;;5069403;28;20040;-65
2023/05/11 11:48:11;;;;;;;2.25;1.17;;;18.70;99.90;;;;;;5087241;28;20550;-65
2023/05/11 11:50:45;;;;;;;3.88;1.20;;;18.70;99.90;;;;;;5076321;28;20043;-65
2023/05/11 11:53:32;;;;;;;2.55;1.02;;;18.50;99.90;;;;;;5092955;28;20036;-65
2023/05/11 11:55:58;;;;;;;4.90;2.22;;;18.30;99.90;;;;;;5111303;28;20032;-65
2023/05/11 11:58:43;;;;;;;4.68;1.35;;;18.00;99.90;;;;;;5111622;28;20036;-65
2023/05/11 12:01:16;;;;;;;4.72;1.40;;;17.80;99.90;;;;;;5093121;28;20039;-65
2023/05/11 12:03:45;;;;;;;5.05;1.65;;;17.60;99.90;;;;;;5076196;28;20077;-65
2023/05/11 12:06:12;;;;;;;3.47;1.35;;;17.60;99.90;;;;;;5092810;28;20383;-66
2023/05/11 12:08:40;;;;;;;3.97;1.92;;;17.50;99.90;;;;;;5093074;28;20047;-66
2023/05/11 12:11:06;;;;;;;4.57;1.80;;;17.40;99.90;;;;;;5111435;28;20039;-66
2023/05/11 12:13:34;;;;;;;4.40;1.90;;;17.30;99.90;;;;;;5110750;28;20035;-66
2023/05/11 12:16:17;;;;;;;3.10;1.80;;;17.30;99.90;;;;;;5111369;28;20035;-66
2023/05/11 12:18:57;;;;;;;3.75;1.90;;;17.20;99.90;;;;;;5092760;28;20043;-66
2023/05/11 12:21:28;;;;;;;4.78;1.63;;;17.20;99.90;;;;;;5092055;28;20492;-66
2023/05/11 12:23:56;;;;;;;4.93;2.15;;;17.20;99.90;;;;;;5092751;28;20034;-67
2023/05/11 12:26:24;;;;;;;3.63;1.52;;;17.20;99.90;;;;;;5075580;28;20484;-66
2023/05/11 12:28:51;;;;;;;4.32;2.25;;;17.20;99.90;;;;;;5075245;28;20035;-67
2023/05/11 12:31:17;;;;;;;4.75;1.83;;;17.20;99.90;;;;;;5075521;28;20177;-67
2023/05/11 12:33:48;;;;;;;3.90;2.22;;;17.10;99.90;;;;;;5092153;28;20403;-67
2023/05/11 12:36:15;;;;;;;3.90;1.67;;;17.20;99.90;;;;;;5092384;28;20036;-67
2023/05/11 12:38:45;;;;;;;3.70;1.77;;;17.10;99.90;;;;;;5092875;28;20036;-68
2023/05/11 12:41:17;;;;;;;4.00;1.92;;;17.20;99.90;;;;;;5110262;28;20075;-68
2023/05/11 12:43:43;;;;;;;3.25;1.98;;;17.30;99.90;;;;;;5092483;28;20043;-68
2023/05/11 12:46:09;;;;;;;4.13;1.77;;;17.40;99.90;;;;;;5110717;28;20377;-69
2023/05/11 12:48:35;;;;;;;3.67;1.35;;;17.50;99.90;;;;;;5109974;28;20052;-68
2023/05/11 12:51:01;;;;;;;4.50;1.58;;;17.50;99.90;;;;;;5110881;28;20047;-68
2023/05/11 12:53:34;;;;;;;3.03;1.45;;;17.50;99.90;;;;;;5092027;28;20123;-67
2023/05/11 12:56:00;;;;;;;2.88;1.73;;;17.50;99.90;;;;;;5109971;28;20028;-68
2023/05/11 12:58:36;;;;;;;2.45;0.93;;;17.50;99.90;;;;;;5091977;28;20062;-67